createdAt,value
2018-02-26T00:00:04.623Z,1014.45
2018-02-26T00:01:04.634Z,1014.43
2018-02-26T00:02:04.645Z,1014.40
2018-02-26T00:03:04.652Z,1014.43
2018-02-26T00:04:04.662Z,1014.37
2018-02-26T00:05:04.672Z,1014.41
2018-02-26T00:06:04.682Z,1014.39
2018-02-26T00:07:04.695Z,1014.39
2018-02-26T00:08:04.702Z,1014.40
2018-02-26T00:09:04.710Z,1014.39
2018-02-26T00:10:04.719Z,1014.37
2018-02-26T00:11:04.734Z,1014.38
2018-02-26T00:12:04.738Z,1014.42
2018-02-26T00:13:04.749Z,1014.33
2018-02-26T00:14:04.761Z,1014.37
2018-02-26T00:15:04.773Z,1014.35
2018-02-26T00:16:04.778Z,1014.35
2018-02-26T00:17:04.799Z,1014.32
2018-02-26T00:18:04.798Z,1014.33
2018-02-26T00:19:04.812Z,1014.31
2018-02-26T00:20:04.817Z,1014.30
2018-02-26T00:21:04.830Z,1014.31
2018-02-26T00:22:04.837Z,1014.29
2018-02-26T00:23:04.845Z,1014.33
2018-02-26T00:24:04.856Z,1014.34
2018-02-26T00:25:04.867Z,1014.34
2018-02-26T00:26:04.885Z,1014.34
2018-02-26T00:27:04.888Z,1014.32
2018-02-26T00:28:04.895Z,1014.32
2018-02-26T00:29:04.921Z,1014.32
2018-02-26T00:30:04.916Z,1014.32
2018-02-26T00:31:04.928Z,1014.34
2018-02-26T00:32:04.939Z,1014.32
2018-02-26T00:33:04.946Z,1014.29
2018-02-26T00:34:04.954Z,1014.31
2018-02-26T00:35:04.964Z,1014.27
2018-02-26T00:36:04.974Z,1014.31
2018-02-26T00:37:05.001Z,1014.28
2018-02-26T00:38:05.014Z,1014.30
2018-02-26T00:39:05.006Z,1014.26
2018-02-26T00:40:05.031Z,1014.26
2018-02-26T00:41:05.037Z,1014.26
2018-02-26T00:42:05.037Z,1014.28
2018-02-26T00:43:05.046Z,1014.24
2018-02-26T00:44:05.055Z,1014.27
2018-02-26T00:45:05.066Z,1014.29
2018-02-26T00:46:05.079Z,1014.31
2018-02-26T00:47:05.085Z,1014.25
2018-02-26T00:48:05.093Z,1014.27
2018-02-26T00:49:05.116Z,1014.26
2018-02-26T00:50:05.114Z,1014.29
2018-02-26T00:51:05.131Z,1014.27
2018-02-26T00:52:05.136Z,1014.33
2018-02-26T00:53:05.143Z,1014.28
2018-02-26T00:54:05.162Z,1014.29
2018-02-26T00:55:05.169Z,1014.28
2018-02-26T00:56:05.175Z,1014.27
2018-02-26T00:57:05.185Z,1014.24
2018-02-26T00:58:05.194Z,1014.31
2018-02-26T00:59:05.204Z,1014.27
2018-02-26T01:00:05.214Z,1014.29
2018-02-26T01:01:05.227Z,1014.30
2018-02-26T01:02:05.238Z,1014.32
2018-02-26T01:03:05.252Z,1014.32
2018-02-26T01:04:05.254Z,1014.32
2018-02-26T01:05:05.265Z,1014.30
2018-02-26T01:06:05.280Z,1014.28
2018-02-26T01:07:05.290Z,1014.27
2018-02-26T01:08:05.298Z,1014.27
2018-02-26T01:09:05.310Z,1014.24
2018-02-26T01:10:05.315Z,1014.22
2018-02-26T01:11:05.324Z,1014.21
2018-02-26T01:12:05.333Z,1014.22
2018-02-26T01:13:05.353Z,1014.23
2018-02-26T01:14:05.366Z,1014.20
2018-02-26T01:15:05.371Z,1014.25
2018-02-26T01:16:05.388Z,1014.19
2018-02-26T01:17:05.388Z,1014.18
2018-02-26T01:18:05.403Z,1014.22
2018-02-26T01:19:05.403Z,1014.20
2018-02-26T01:20:05.415Z,1014.23
2018-02-26T01:21:05.434Z,1014.22
2018-02-26T01:22:05.438Z,1014.20
2018-02-26T01:23:05.450Z,1014.22
2018-02-26T01:24:05.465Z,1014.23
2018-02-26T01:25:05.468Z,1014.23
2018-02-26T01:26:05.476Z,1014.22
2018-02-26T01:27:05.487Z,1014.22
2018-02-26T01:28:05.505Z,1014.23
2018-02-26T01:29:05.506Z,1014.23
2018-02-26T01:30:05.519Z,1014.23
2018-02-26T01:31:05.524Z,1014.20
2018-02-26T01:32:05.534Z,1014.24
2018-02-26T01:33:05.554Z,1014.23
2018-02-26T01:34:05.556Z,1014.21
2018-02-26T01:35:05.566Z,1014.20
2018-02-26T01:36:05.575Z,1014.24
2018-02-26T01:37:05.580Z,1014.25
2018-02-26T01:38:05.593Z,1014.23
2018-02-26T01:39:05.604Z,1014.24
2018-02-26T01:40:05.614Z,1014.21
2018-02-26T01:41:05.623Z,1014.21
2018-02-26T01:42:05.635Z,1014.23
2018-02-26T01:43:05.641Z,1014.19
2018-02-26T01:44:05.652Z,1014.16
2018-02-26T01:45:05.665Z,1014.22
2018-02-26T01:46:05.674Z,1014.22
2018-02-26T01:47:05.682Z,1014.22
2018-02-26T01:48:05.690Z,1014.23
2018-02-26T01:49:05.700Z,1014.25
2018-02-26T01:50:05.711Z,1014.25
2018-02-26T01:51:05.720Z,1014.25
2018-02-26T01:52:05.731Z,1014.24
2018-02-26T01:53:05.737Z,1014.29
2018-02-26T01:54:05.754Z,1014.30
2018-02-26T01:55:05.759Z,1014.28
2018-02-26T01:56:05.764Z,1014.29
2018-02-26T01:57:05.773Z,1014.29
2018-02-26T01:58:05.785Z,1014.30
2018-02-26T01:59:05.791Z,1014.32
2018-02-26T02:00:05.806Z,1014.32
2018-02-26T02:01:05.814Z,1014.33
2018-02-26T02:02:05.822Z,1014.27
2018-02-26T02:03:05.828Z,1014.29
2018-02-26T02:04:05.840Z,1014.33
2018-02-26T02:05:05.848Z,1014.29
2018-02-26T02:06:05.858Z,1014.32
2018-02-26T02:07:05.866Z,1014.33
2018-02-26T02:08:05.877Z,1014.32
2018-02-26T02:09:05.888Z,1014.30
2018-02-26T02:10:05.896Z,1014.30
2018-02-26T02:11:05.907Z,1014.32
2018-02-26T02:12:05.913Z,1014.32
2018-02-26T02:13:05.926Z,1014.35
2018-02-26T02:14:05.931Z,1014.28
2018-02-26T02:15:05.941Z,1014.35
2018-02-26T02:16:05.950Z,1014.33
2018-02-26T02:17:05.958Z,1014.32
2018-02-26T02:18:05.971Z,1014.27
2018-02-26T02:19:05.982Z,1014.29
2018-02-26T02:20:05.984Z,1014.30
2018-02-26T02:21:05.996Z,1014.29
2018-02-26T02:22:06.007Z,1014.29
2018-02-26T02:23:06.011Z,1014.29
2018-02-26T02:24:06.023Z,1014.29
2018-02-26T02:25:06.037Z,1014.30
2018-02-26T02:26:06.042Z,1014.27
2018-02-26T02:27:06.050Z,1014.26
2018-02-26T02:28:06.058Z,1014.26
2018-02-26T02:29:06.077Z,1014.22
2018-02-26T02:30:06.078Z,1014.23
2018-02-26T02:31:06.088Z,1014.21
2018-02-26T02:32:06.089Z,1014.28
2018-02-26T02:33:06.103Z,1014.23
2018-02-26T02:34:06.113Z,1014.30
2018-02-26T02:35:06.120Z,1014.32
2018-02-26T02:36:06.127Z,1014.28
2018-02-26T02:37:06.140Z,1014.26
2018-02-26T02:38:06.145Z,1014.28
2018-02-26T02:39:06.157Z,1014.25
2018-02-26T02:40:06.166Z,1014.31
2018-02-26T02:41:06.178Z,1014.31
2018-02-26T02:42:06.182Z,1014.29
2018-02-26T02:43:06.188Z,1014.24
2018-02-26T02:44:06.200Z,1014.28
2018-02-26T02:45:06.209Z,1014.28
2018-02-26T02:46:06.214Z,1014.31
2018-02-26T02:47:06.225Z,1014.27
2018-02-26T02:48:06.234Z,1014.33
2018-02-26T02:49:06.241Z,1014.29
2018-02-26T02:50:06.253Z,1014.26
2018-02-26T02:51:06.264Z,1014.29
2018-02-26T02:52:06.275Z,1014.30
2018-02-26T02:53:06.279Z,1014.27
2018-02-26T02:54:06.292Z,1014.29
2018-02-26T02:55:06.299Z,1014.28
2018-02-26T02:56:06.308Z,1014.29
2018-02-26T02:57:06.318Z,1014.30
2018-02-26T02:58:06.325Z,1014.26
2018-02-26T02:59:06.333Z,1014.26
2018-02-26T03:00:06.344Z,1014.29
2018-02-26T03:01:06.354Z,1014.27
2018-02-26T03:02:06.365Z,1014.33
2018-02-26T03:03:06.376Z,1014.29
2018-02-26T03:04:06.388Z,1014.30
2018-02-26T03:05:06.391Z,1014.25
2018-02-26T03:06:06.402Z,1014.30
2018-02-26T03:07:06.411Z,1014.27
2018-02-26T03:08:06.417Z,1014.30
2018-02-26T03:09:06.427Z,1014.31
2018-02-26T03:10:06.436Z,1014.32
2018-02-26T03:11:06.449Z,1014.32
2018-02-26T03:12:06.459Z,1014.36
2018-02-26T03:13:06.464Z,1014.37
2018-02-26T03:14:06.481Z,1014.35
2018-02-26T03:15:06.485Z,1014.36
2018-02-26T03:16:06.498Z,1014.32
2018-02-26T03:17:06.504Z,1014.30
2018-02-26T03:18:06.511Z,1014.31
2018-02-26T03:19:06.519Z,1014.28
2018-02-26T03:20:06.533Z,1014.30
2018-02-26T03:21:06.540Z,1014.30
2018-02-26T03:22:06.549Z,1014.28
2018-02-26T03:23:06.561Z,1014.29
2018-02-26T03:24:06.570Z,1014.30
2018-02-26T03:25:06.585Z,1014.29
2018-02-26T03:26:06.585Z,1014.27
2018-02-26T03:27:06.597Z,1014.27
2018-02-26T03:28:06.605Z,1014.29
2018-02-26T03:29:06.613Z,1014.25
2018-02-26T03:30:06.622Z,1014.28
2018-02-26T03:31:06.633Z,1014.26
2018-02-26T03:32:06.647Z,1014.29
2018-02-26T03:33:06.654Z,1014.31
2018-02-26T03:34:06.662Z,1014.26
2018-02-26T03:35:06.669Z,1014.28
2018-02-26T03:36:06.679Z,1014.32
2018-02-26T03:37:06.685Z,1014.27
2018-02-26T03:38:06.696Z,1014.31
2018-02-26T03:39:06.711Z,1014.31
2018-02-26T03:40:06.715Z,1014.31
2018-02-26T03:41:06.721Z,1014.36
2018-02-26T03:42:06.732Z,1014.33
2018-02-26T03:43:06.737Z,1014.34
2018-02-26T03:44:06.749Z,1014.32
2018-02-26T03:45:06.758Z,1014.37
2018-02-26T03:46:06.768Z,1014.35
2018-02-26T03:47:06.775Z,1014.36
2018-02-26T03:48:06.784Z,1014.31
2018-02-26T03:49:06.872Z,1014.32
2018-02-26T03:50:06.803Z,1014.28
2018-02-26T03:51:06.809Z,1014.31
2018-02-26T03:52:06.820Z,1014.31
2018-02-26T03:53:06.827Z,1014.32
2018-02-26T03:54:06.837Z,1014.31
2018-02-26T03:55:06.861Z,1014.32
2018-02-26T03:56:06.856Z,1014.36
2018-02-26T03:57:06.865Z,1014.30
2018-02-26T03:58:06.876Z,1014.33
2018-02-26T03:59:06.883Z,1014.29
2018-02-26T04:00:06.888Z,1014.29
2018-02-26T04:01:06.902Z,1014.25
2018-02-26T04:02:06.910Z,1014.26
2018-02-26T04:03:06.921Z,1014.24
2018-02-26T04:04:06.926Z,1014.25
2018-02-26T04:05:06.937Z,1014.26
2018-02-26T04:06:06.945Z,1014.26
2018-02-26T04:07:06.956Z,1014.27
2018-02-26T04:08:06.964Z,1014.25
2018-02-26T04:09:06.975Z,1014.25
2018-02-26T04:10:06.977Z,1014.29
2018-02-26T04:11:06.986Z,1014.25
2018-02-26T04:12:06.993Z,1014.23
2018-02-26T04:13:07.005Z,1014.27
2018-02-26T04:14:07.015Z,1014.25
2018-02-26T04:15:07.023Z,1014.26
2018-02-26T04:16:07.031Z,1014.22
2018-02-26T04:17:07.040Z,1014.22
2018-02-26T04:18:07.052Z,1014.25
2018-02-26T04:19:07.062Z,1014.28
2018-02-26T04:20:07.067Z,1014.25
2018-02-26T04:21:07.075Z,1014.27
2018-02-26T04:22:07.083Z,1014.31
2018-02-26T04:23:07.093Z,1014.30
2018-02-26T04:24:07.101Z,1014.28
2018-02-26T04:25:07.111Z,1014.32
2018-02-26T04:26:07.128Z,1014.28
2018-02-26T04:27:07.128Z,1014.30
2018-02-26T04:28:07.137Z,1014.35
2018-02-26T04:29:07.150Z,1014.33
2018-02-26T04:30:07.157Z,1014.33
2018-02-26T04:31:07.164Z,1014.36
2018-02-26T04:32:07.177Z,1014.39
2018-02-26T04:33:07.182Z,1014.34
2018-02-26T04:34:07.212Z,1014.40
2018-02-26T04:35:07.198Z,1014.38
2018-02-26T04:36:07.209Z,1014.43
2018-02-26T04:37:07.220Z,1014.42
2018-02-26T04:38:07.225Z,1014.44
2018-02-26T04:39:07.237Z,1014.47
2018-02-26T04:40:07.246Z,1014.43
2018-02-26T04:41:07.254Z,1014.38
2018-02-26T04:42:07.266Z,1014.42
2018-02-26T04:43:07.271Z,1014.43
2018-02-26T04:44:07.278Z,1014.42
2018-02-26T04:45:07.286Z,1014.41
2018-02-26T04:46:07.297Z,1014.38
2018-02-26T04:47:07.304Z,1014.38
2018-02-26T04:48:07.314Z,1014.40
2018-02-26T04:49:07.321Z,1014.33
2018-02-26T04:50:07.331Z,1014.41
2018-02-26T04:51:07.349Z,1014.34
2018-02-26T04:52:07.349Z,1014.38
2018-02-26T04:53:07.358Z,1014.36
2018-02-26T04:54:07.377Z,1014.38
2018-02-26T04:55:07.373Z,1014.41
2018-02-26T04:56:07.383Z,1014.39
2018-02-26T04:57:07.392Z,1014.40
2018-02-26T04:58:07.404Z,1014.36
2018-02-26T04:59:07.412Z,1014.41
2018-02-26T05:00:07.419Z,1014.40
2018-02-26T05:01:07.427Z,1014.41
2018-02-26T05:02:07.437Z,1014.40
2018-02-26T05:03:07.443Z,1014.39
2018-02-26T05:04:07.471Z,1014.41
2018-02-26T05:05:07.468Z,1014.40
2018-02-26T05:06:07.480Z,1014.40
2018-02-26T05:07:07.481Z,1014.40
2018-02-26T05:08:07.492Z,1014.35
2018-02-26T05:09:07.500Z,1014.42
2018-02-26T05:10:07.507Z,1014.40
2018-02-26T05:11:07.516Z,1014.42
2018-02-26T05:12:07.522Z,1014.44
2018-02-26T05:13:07.541Z,1014.37
2018-02-26T05:14:07.552Z,1014.40
2018-02-26T05:15:07.551Z,1014.40
2018-02-26T05:16:07.563Z,1014.36
2018-02-26T05:17:07.567Z,1014.39
2018-02-26T05:18:07.585Z,1014.37
2018-02-26T05:19:07.588Z,1014.39
2018-02-26T05:20:07.594Z,1014.38
2018-02-26T05:21:07.603Z,1014.40
2018-02-26T05:22:07.611Z,1014.38
2018-02-26T05:23:07.617Z,1014.37
2018-02-26T05:24:07.634Z,1014.42
2018-02-26T05:25:07.640Z,1014.35
2018-02-26T05:26:07.650Z,1014.35
2018-02-26T05:27:07.653Z,1014.34
2018-02-26T05:28:07.664Z,1014.35
2018-02-26T05:29:07.678Z,1014.32
2018-02-26T05:30:07.681Z,1014.33
2018-02-26T05:31:07.690Z,1014.34
2018-02-26T05:32:07.700Z,1014.33
2018-02-26T05:33:07.713Z,1014.34
2018-02-26T05:34:07.721Z,1014.37
2018-02-26T05:35:07.727Z,1014.38
2018-02-26T05:36:07.736Z,1014.38
2018-02-26T05:37:07.753Z,1014.35
2018-02-26T05:38:07.749Z,1014.33
2018-02-26T05:39:07.762Z,1014.38
2018-02-26T05:40:07.773Z,1014.38
2018-02-26T05:41:07.779Z,1014.37
2018-02-26T05:42:07.790Z,1014.34
2018-02-26T05:43:07.799Z,1014.34
2018-02-26T05:44:07.812Z,1014.31
2018-02-26T05:45:07.818Z,1014.30
2018-02-26T05:46:07.827Z,1014.32
2018-02-26T05:47:07.835Z,1014.30
2018-02-26T05:48:07.846Z,1014.25
2018-02-26T05:49:07.851Z,1014.29
2018-02-26T05:50:07.862Z,1014.27
2018-02-26T05:51:07.875Z,1014.29
2018-02-26T05:52:07.878Z,1014.27
2018-02-26T05:53:07.889Z,1014.27
2018-02-26T05:54:07.897Z,1014.31
2018-02-26T05:55:07.901Z,1014.29
2018-02-26T05:56:07.917Z,1014.36
2018-02-26T05:57:07.925Z,1014.30
2018-02-26T05:58:07.931Z,1014.35
2018-02-26T05:59:07.943Z,1014.30
2018-02-26T06:00:07.973Z,1014.32
2018-02-26T06:01:07.959Z,1014.31
2018-02-26T06:02:07.967Z,1014.32
2018-02-26T06:03:07.988Z,1014.38
2018-02-26T06:04:07.985Z,1014.35
2018-02-26T06:05:07.992Z,1014.30
2018-02-26T06:06:08.001Z,1014.35
2018-02-26T06:07:08.008Z,1014.33
2018-02-26T06:08:08.018Z,1014.33
2018-02-26T06:09:08.027Z,1014.32
2018-02-26T06:10:08.090Z,1014.26
2018-02-26T06:11:08.052Z,1014.28
2018-02-26T06:12:08.053Z,1014.32
2018-02-26T06:13:08.059Z,1014.31
2018-02-26T06:14:08.072Z,1014.30
2018-02-26T06:15:08.075Z,1014.28
2018-02-26T06:16:08.085Z,1014.34
2018-02-26T06:17:08.103Z,1014.20
2018-02-26T06:18:08.102Z,1014.27
2018-02-26T06:19:08.116Z,1014.26
2018-02-26T06:20:08.120Z,1014.27
2018-02-26T06:21:08.129Z,1014.32
2018-02-26T06:22:08.134Z,1014.26
2018-02-26T06:23:08.143Z,1014.30
2018-02-26T06:24:08.154Z,1014.29
2018-02-26T06:25:08.172Z,1014.31
2018-02-26T06:26:08.171Z,1014.27
2018-02-26T06:27:08.177Z,1014.28
2018-02-26T06:28:08.186Z,1014.36
2018-02-26T06:29:08.199Z,1014.32
2018-02-26T06:30:08.202Z,1014.34
2018-02-26T06:31:08.207Z,1014.31
2018-02-26T06:32:08.220Z,1014.28
2018-02-26T06:33:08.229Z,1014.33
2018-02-26T06:34:08.235Z,1014.38
2018-02-26T06:35:08.245Z,1014.46
2018-02-26T06:36:08.252Z,1014.52
2018-02-26T06:37:08.260Z,1014.45
2018-02-26T06:38:08.268Z,1014.45
2018-02-26T06:39:08.276Z,1014.51
2018-02-26T06:40:08.284Z,1014.47
2018-02-26T06:41:08.290Z,1014.46
2018-02-26T06:42:08.302Z,1014.58
2018-02-26T06:43:08.308Z,1014.59
2018-02-26T06:44:08.319Z,1014.64
2018-02-26T06:45:08.325Z,1014.66
2018-02-26T06:46:08.333Z,1014.65
2018-02-26T06:47:08.356Z,1014.66
2018-02-26T06:48:08.348Z,1014.68
2018-02-26T06:49:08.359Z,1014.69
2018-02-26T06:50:08.369Z,1014.67
2018-02-26T06:51:08.372Z,1014.72
2018-02-26T06:52:08.381Z,1014.59
2018-02-26T06:53:08.387Z,1014.76
2018-02-26T06:54:08.402Z,1014.87
2018-02-26T06:55:08.404Z,1014.77
2018-02-26T06:56:08.416Z,1014.79
2018-02-26T06:57:08.422Z,1014.83
2018-02-26T06:58:08.430Z,1014.92
2018-02-26T06:59:08.440Z,1014.93
2018-02-26T07:00:08.447Z,1014.99
2018-02-26T07:01:08.455Z,1014.95
2018-02-26T07:02:08.464Z,1014.95
2018-02-26T07:03:08.475Z,1015.54
2018-02-26T07:04:08.483Z,1015.52
2018-02-26T07:05:08.495Z,1015.52
2018-02-26T07:06:08.503Z,1015.50
2018-02-26T07:07:08.509Z,1015.48
2018-02-26T07:08:08.523Z,1015.40
2018-02-26T07:09:08.529Z,1015.45
2018-02-26T07:10:08.540Z,1014.88
2018-02-26T07:11:08.550Z,1014.84
2018-02-26T07:12:08.596Z,1014.85
2018-02-26T07:13:08.576Z,1014.90
2018-02-26T07:14:08.589Z,1015.03
2018-02-26T07:15:08.595Z,1015.06
2018-02-26T07:16:08.611Z,1014.85
2018-02-26T07:17:08.621Z,1014.89
2018-02-26T07:18:08.629Z,1015.02
2018-02-26T07:19:08.639Z,1015.02
2018-02-26T07:20:08.650Z,1014.99
2018-02-26T07:21:08.662Z,1015.06
2018-02-26T07:22:08.673Z,1015.09
2018-02-26T07:23:08.683Z,1014.97
2018-02-26T07:24:08.695Z,1014.93
2018-02-26T07:25:08.703Z,1014.88
2018-02-26T07:26:08.722Z,1014.95
2018-02-26T07:27:08.724Z,1015.00
2018-02-26T07:28:08.749Z,1015.03
2018-02-26T07:29:08.746Z,1015.00
2018-02-26T07:30:08.753Z,1015.23
2018-02-26T07:31:08.762Z,1015.27
2018-02-26T07:32:08.774Z,1015.28
2018-02-26T07:33:08.786Z,1015.34
2018-02-26T07:34:08.794Z,1015.36
2018-02-26T07:35:08.807Z,1015.78
2018-02-26T07:36:08.819Z,1015.72
2018-02-26T07:37:08.828Z,1015.56
2018-02-26T07:38:08.842Z,1015.68
2018-02-26T07:39:08.846Z,1015.65
2018-02-26T07:40:08.856Z,1015.68
2018-02-26T07:41:08.871Z,1015.62
2018-02-26T07:42:08.886Z,1015.58
2018-02-26T07:43:08.891Z,1015.60
2018-02-26T07:44:08.906Z,1015.64
2018-02-26T07:45:08.917Z,1015.71
2018-02-26T07:46:08.932Z,1015.60
2018-02-26T07:47:08.941Z,1015.58
2018-02-26T07:48:08.957Z,1015.55
2018-02-26T07:49:08.976Z,1015.67
2018-02-26T07:50:08.980Z,1015.67
2018-02-26T07:51:08.993Z,1015.65
2018-02-26T07:52:09.003Z,1015.56
2018-02-26T07:53:09.021Z,1015.60
2018-02-26T07:54:09.037Z,1015.67
2018-02-26T07:55:09.047Z,1015.63
2018-02-26T07:56:09.061Z,1015.61
2018-02-26T07:57:09.076Z,1015.61
2018-02-26T07:58:09.090Z,1015.61
2018-02-26T07:59:09.103Z,1015.61
2018-02-26T08:00:09.120Z,1015.33
2018-02-26T08:01:09.184Z,1015.63
2018-02-26T08:02:09.149Z,1015.63
2018-02-26T08:03:09.167Z,1015.37
2018-02-26T08:04:09.183Z,1015.51
2018-02-26T08:05:09.202Z,1015.67
2018-02-26T08:06:09.212Z,1015.69
2018-02-26T08:07:09.229Z,1015.63
2018-02-26T08:08:09.241Z,1015.61
2018-02-26T08:09:09.260Z,1015.67
2018-02-26T08:10:09.277Z,1015.41
2018-02-26T08:11:09.291Z,1015.46
2018-02-26T08:12:09.309Z,1015.53
2018-02-26T08:13:09.324Z,1015.64
2018-02-26T08:14:09.340Z,1015.54
2018-02-26T08:15:09.358Z,1015.44
2018-02-26T08:16:09.367Z,1015.38
2018-02-26T08:17:09.389Z,1015.30
2018-02-26T08:18:09.403Z,1015.56
2018-02-26T08:19:09.417Z,1015.33
2018-02-26T08:20:09.436Z,1015.34
2018-02-26T08:21:09.455Z,1015.27
2018-02-26T08:22:09.466Z,1015.23
2018-02-26T08:23:09.483Z,1015.21
2018-02-26T08:24:09.500Z,1015.04
2018-02-26T08:25:09.514Z,1015.10
2018-02-26T08:26:09.533Z,1015.25
2018-02-26T08:27:09.548Z,1015.00
2018-02-26T08:28:09.562Z,1015.18
2018-02-26T08:29:09.591Z,1015.16
2018-02-26T08:30:09.616Z,1014.85
2018-02-26T08:31:09.612Z,1014.98
2018-02-26T08:32:09.628Z,1015.13
2018-02-26T08:33:09.641Z,1014.82
2018-02-26T08:34:09.660Z,1014.86
2018-02-26T08:35:09.676Z,1015.18
2018-02-26T08:36:09.688Z,1015.14
2018-02-26T08:37:09.706Z,1014.93
2018-02-26T08:38:09.753Z,1014.76
2018-02-26T08:39:09.731Z,1014.89
2018-02-26T08:40:09.750Z,1014.86
2018-02-26T08:41:09.762Z,1014.93
2018-02-26T08:42:09.779Z,1014.92
2018-02-26T08:43:09.790Z,1014.85
2018-02-26T08:44:09.806Z,1015.18
2018-02-26T08:45:09.816Z,1015.06
2018-02-26T08:46:09.830Z,1014.94
2018-02-26T08:47:09.845Z,1015.06
2018-02-26T08:48:09.857Z,1014.94
2018-02-26T08:49:09.869Z,1015.10
2018-02-26T08:50:09.886Z,1015.29
2018-02-26T08:51:09.894Z,1015.08
2018-02-26T08:52:09.909Z,1015.06
2018-02-26T08:53:09.922Z,1015.07
2018-02-26T08:54:09.935Z,1014.90
2018-02-26T08:55:09.947Z,1014.98
2018-02-26T08:56:09.960Z,1015.21
2018-02-26T08:57:09.974Z,1015.22
2018-02-26T08:58:09.985Z,1014.89
2018-02-26T08:59:09.998Z,1014.85
2018-02-26T09:00:10.009Z,1015.09
2018-02-26T09:01:10.023Z,1014.96
2018-02-26T09:02:10.033Z,1015.12
2018-02-26T09:03:10.049Z,1015.00
2018-02-26T09:04:10.057Z,1015.07
2018-02-26T09:05:10.076Z,1014.98
2018-02-26T09:06:10.084Z,1014.96
2018-02-26T09:07:10.114Z,1014.98
2018-02-26T09:08:10.108Z,1015.21
2018-02-26T09:09:10.121Z,1015.03
2018-02-26T09:10:10.136Z,1015.15
2018-02-26T09:11:10.150Z,1015.26
2018-02-26T09:12:10.159Z,1015.30
2018-02-26T09:13:10.173Z,1015.35
2018-02-26T09:14:10.183Z,1015.32
2018-02-26T09:15:10.196Z,1015.30
2018-02-26T09:16:10.221Z,1015.17
2018-02-26T09:17:10.219Z,1015.23
2018-02-26T09:18:10.232Z,1015.23
2018-02-26T09:19:10.244Z,1015.17
2018-02-26T09:20:10.255Z,1015.36
2018-02-26T09:21:10.270Z,1015.28
2018-02-26T09:22:10.282Z,1015.19
2018-02-26T09:23:10.296Z,1015.03
2018-02-26T09:24:10.309Z,1015.04
2018-02-26T09:25:10.325Z,1015.02
2018-02-26T09:26:10.338Z,1015.09
2018-02-26T09:27:10.346Z,1015.19
2018-02-26T09:28:10.357Z,1015.19
2018-02-26T09:29:10.370Z,1015.11
2018-02-26T09:30:10.384Z,1015.02
2018-02-26T09:31:10.397Z,1015.29
2018-02-26T09:32:10.413Z,1015.19
2018-02-26T09:33:10.420Z,1015.26
2018-02-26T09:34:10.436Z,1015.10
2018-02-26T09:35:10.447Z,1015.24
2018-02-26T09:36:10.464Z,1015.04
2018-02-26T09:37:10.472Z,1015.08
2018-02-26T09:38:10.486Z,1015.11
2018-02-26T09:39:10.501Z,1015.04
2018-02-26T09:40:10.508Z,1015.05
2018-02-26T09:41:10.522Z,1015.15
2018-02-26T09:42:10.530Z,1014.95
2018-02-26T09:43:10.544Z,1014.93
2018-02-26T09:44:10.558Z,1015.01
2018-02-26T09:45:10.569Z,1014.83
2018-02-26T09:46:10.580Z,1014.91
2018-02-26T09:47:10.593Z,1014.79
2018-02-26T09:48:10.604Z,1014.74
2018-02-26T09:49:10.614Z,1014.83
2018-02-26T09:50:10.626Z,1014.61
2018-02-26T09:51:10.638Z,1014.64
2018-02-26T09:52:10.650Z,1014.55
2018-02-26T09:53:10.665Z,1014.78
2018-02-26T09:54:10.724Z,1014.65
2018-02-26T09:55:10.684Z,1014.57
2018-02-26T09:56:10.694Z,1014.63
2018-02-26T09:57:10.708Z,1014.68
2018-02-26T09:58:10.720Z,1014.76
2018-02-26T09:59:10.728Z,1014.66
2018-02-26T10:00:10.742Z,1014.65
2018-02-26T10:01:10.751Z,1015.13
2018-02-26T10:02:10.772Z,1014.79
2018-02-26T10:03:10.772Z,1014.76
2018-02-26T10:04:10.785Z,1014.66
2018-02-26T10:05:10.796Z,1014.66
2018-02-26T10:06:10.804Z,1014.78
2018-02-26T10:07:10.817Z,1014.70
2018-02-26T10:08:10.828Z,1014.52
2018-02-26T10:09:10.842Z,1014.45
2018-02-26T10:10:10.849Z,1014.47
2018-02-26T10:11:10.861Z,1014.48
2018-02-26T10:12:10.870Z,1014.43
2018-02-26T10:13:10.881Z,1014.50
2018-02-26T10:14:10.895Z,1014.51
2018-02-26T10:15:10.906Z,1014.52
2018-02-26T10:16:10.914Z,1014.61
2018-02-26T10:17:10.928Z,1014.71
2018-02-26T10:18:10.940Z,1014.65
2018-02-26T10:19:10.949Z,1014.72
2018-02-26T10:20:10.960Z,1014.78
2018-02-26T10:21:10.970Z,1014.76
2018-02-26T10:22:10.984Z,1014.76
2018-02-26T10:23:10.993Z,1014.80
2018-02-26T10:24:11.004Z,1014.77
2018-02-26T10:25:11.019Z,1014.82
2018-02-26T10:26:11.043Z,1014.83
2018-02-26T10:27:11.037Z,1014.74
2018-02-26T10:28:11.046Z,1014.77
2018-02-26T10:29:11.057Z,1014.64
2018-02-26T10:30:11.071Z,1014.69
2018-02-26T10:31:11.083Z,1014.61
2018-02-26T10:32:11.095Z,1014.66
2018-02-26T10:33:11.104Z,1014.64
2018-02-26T10:34:11.118Z,1014.68
2018-02-26T10:35:11.126Z,1014.64
2018-02-26T10:36:11.137Z,1014.65
2018-02-26T10:37:11.150Z,1014.62
2018-02-26T10:38:11.162Z,1014.57
2018-02-26T10:39:11.170Z,1014.52
2018-02-26T10:40:11.184Z,1014.65
2018-02-26T10:41:11.201Z,1014.63
2018-02-26T10:42:11.208Z,1014.66
2018-02-26T10:43:11.220Z,1014.63
2018-02-26T10:44:11.231Z,1014.51
2018-02-26T10:45:11.243Z,1014.56
2018-02-26T10:46:11.250Z,1014.61
2018-02-26T10:47:11.262Z,1014.57
2018-02-26T10:48:11.271Z,1014.59
2018-02-26T10:49:11.298Z,1014.65
2018-02-26T10:50:11.296Z,1014.43
2018-02-26T10:51:11.304Z,1014.43
2018-02-26T10:52:11.320Z,1014.31
2018-02-26T10:53:11.329Z,1014.32
2018-02-26T10:54:11.347Z,1014.31
2018-02-26T10:55:11.351Z,1014.32
2018-02-26T10:56:11.362Z,1014.37
2018-02-26T10:57:11.375Z,1014.48
2018-02-26T10:58:11.385Z,1014.46
2018-02-26T10:59:11.395Z,1014.43
2018-02-26T11:00:11.407Z,1014.33
2018-02-26T11:01:11.419Z,1014.29
2018-02-26T11:02:11.429Z,1014.18
2018-02-26T11:03:11.437Z,1014.21
2018-02-26T11:04:11.458Z,1014.14
2018-02-26T11:05:11.464Z,1014.06
2018-02-26T11:06:11.474Z,1014.12
2018-02-26T11:07:11.496Z,1014.00
2018-02-26T11:08:11.496Z,1014.04
2018-02-26T11:09:11.527Z,1014.05
2018-02-26T11:10:11.518Z,1014.00
2018-02-26T11:11:11.527Z,1014.05
2018-02-26T11:12:11.537Z,1014.03
2018-02-26T11:13:11.553Z,1013.90
2018-02-26T11:14:11.566Z,1014.01
2018-02-26T11:15:11.571Z,1013.85
2018-02-26T11:16:11.583Z,1013.94
2018-02-26T11:17:11.594Z,1013.90
2018-02-26T11:18:11.606Z,1013.94
2018-02-26T11:19:11.621Z,1013.97
2018-02-26T11:20:11.624Z,1014.03
2018-02-26T11:21:11.643Z,1013.85
2018-02-26T11:22:11.646Z,1014.01
2018-02-26T11:23:11.656Z,1014.10
2018-02-26T11:24:11.666Z,1014.23
2018-02-26T11:25:11.678Z,1013.98
2018-02-26T11:26:11.690Z,1013.98
2018-02-26T11:27:11.700Z,1013.91
2018-02-26T11:28:11.710Z,1013.89
2018-02-26T11:29:11.730Z,1013.88
2018-02-26T11:30:11.735Z,1013.82
2018-02-26T11:31:11.760Z,1013.78
2018-02-26T11:32:11.754Z,1013.72
2018-02-26T11:33:11.766Z,1013.72
2018-02-26T11:34:11.774Z,1013.69
2018-02-26T11:35:11.788Z,1013.79
2018-02-26T11:36:11.796Z,1013.80
2018-02-26T11:37:11.809Z,1013.86
2018-02-26T11:38:11.816Z,1013.76
2018-02-26T11:39:11.828Z,1014.01
2018-02-26T11:40:11.872Z,1013.71
2018-02-26T11:41:11.848Z,1013.88
2018-02-26T11:42:11.863Z,1013.78
2018-02-26T11:43:11.868Z,1013.92
2018-02-26T11:44:11.880Z,1013.86
2018-02-26T11:45:11.895Z,1013.70
2018-02-26T11:46:11.906Z,1013.78
2018-02-26T11:47:11.913Z,1013.77
2018-02-26T11:48:11.925Z,1013.73
2018-02-26T11:49:11.935Z,1013.69
2018-02-26T11:50:11.944Z,1013.69
2018-02-26T11:51:11.960Z,1013.65
2018-02-26T11:52:11.973Z,1013.73
2018-02-26T11:53:11.981Z,1013.73
2018-02-26T11:54:11.992Z,1013.70
2018-02-26T11:55:12.004Z,1013.68
2018-02-26T11:56:12.013Z,1013.81
2018-02-26T11:57:12.026Z,1013.88
2018-02-26T11:58:12.035Z,1013.84
2018-02-26T11:59:12.046Z,1013.82
2018-02-26T12:00:12.056Z,1013.86
2018-02-26T12:01:12.067Z,1013.96
2018-02-26T12:02:12.081Z,1013.89
2018-02-26T12:03:12.091Z,1013.84
2018-02-26T12:04:12.102Z,1013.80
2018-02-26T12:05:12.123Z,1013.99